createdAt,value
2022-12-31T00:00:16.705Z,11.016204
2022-12-31T00:05:16.466Z,11.032407
2022-12-31T00:10:16.357Z,11.134259
2022-12-31T00:15:16.607Z,11.196759
2022-12-31T00:20:16.357Z,11.275463
2022-12-31T00:25:16.441Z,11.326389
2022-12-31T00:30:16.762Z,11.413333
2022-12-31T00:35:16.404Z,11.442222
2022-12-31T00:40:16.333Z,11.432870
2022-12-31T00:45:16.385Z,11.474537
2022-12-31T00:50:16.474Z,11.509259
2022-12-31T00:55:16.468Z,11.553241
2022-12-31T01:00:16.373Z,11.608889
2022-12-31T01:05:16.442Z,11.659722
2022-12-31T01:10:16.648Z,11.740741
2022-12-31T01:15:16.540Z,11.803241
2022-12-31T01:20:16.473Z,11.842222
2022-12-31T01:25:16.327Z,11.888889
2022-12-31T01:30:16.699Z,11.942222
2022-12-31T01:35:16.286Z,11.914352
2022-12-31T01:40:16.502Z,11.888889
2022-12-31T01:45:16.682Z,11.930556
2022-12-31T01:50:16.444Z,11.949074
2022-12-31T01:55:16.333Z,11.976852
2022-12-31T02:00:16.264Z,12.013889
2022-12-31T02:05:18.819Z,12.081019
2022-12-31T02:10:18.738Z,12.166667
2022-12-31T02:15:18.791Z,12.182870
2022-12-31T02:20:18.894Z,12.282407
2022-12-31T02:25:18.963Z,12.331019
2022-12-31T02:30:18.844Z,12.416667
2022-12-31T02:35:18.895Z,12.511574
2022-12-31T02:40:18.979Z,12.587963
2022-12-31T02:45:18.802Z,12.620370
2022-12-31T02:50:18.806Z,12.692130
2022-12-31T02:55:19.053Z,12.791667
2022-12-31T03:00:18.852Z,12.884259
2022-12-31T03:05:18.909Z,12.958333
2022-12-31T03:10:18.753Z,13.011574
2022-12-31T03:15:18.746Z,13.039352
2022-12-31T03:20:18.771Z,13.104444
2022-12-31T03:25:18.811Z,13.210648
2022-12-31T03:30:18.794Z,13.252315
2022-12-31T03:35:18.749Z,13.312500
2022-12-31T03:40:18.797Z,13.351852
2022-12-31T03:45:18.792Z,13.388889
2022-12-31T03:50:18.767Z,13.425926
2022-12-31T03:55:18.893Z,13.451389
2022-12-31T04:00:19.138Z,13.462963
2022-12-31T04:05:18.725Z,13.516204
2022-12-31T04:10:19.013Z,13.557870
2022-12-31T04:15:18.806Z,13.583333
2022-12-31T04:20:19.308Z,13.620370
2022-12-31T04:25:19.027Z,13.650463
2022-12-31T04:30:19.173Z,13.671296
2022-12-31T04:35:18.776Z,13.671296
2022-12-31T04:40:18.807Z,13.696759
2022-12-31T04:45:18.747Z,13.719907
2022-12-31T04:50:18.910Z,13.800926
2022-12-31T04:55:18.717Z,13.877315
2022-12-31T05:00:18.747Z,13.881944
2022-12-31T05:05:18.707Z,13.837963
2022-12-31T05:10:18.803Z,13.789352
2022-12-31T05:15:18.827Z,13.796296
2022-12-31T05:20:18.929Z,13.807870
2022-12-31T05:25:18.799Z,13.858796
2022-12-31T05:30:18.895Z,13.875000
2022-12-31T05:35:18.847Z,13.833333
2022-12-31T05:40:18.986Z,13.875000
2022-12-31T05:45:18.793Z,13.881944
2022-12-31T05:50:18.720Z,13.935185
2022-12-31T05:55:18.739Z,13.944444
2022-12-31T06:00:18.967Z,13.928241
2022-12-31T06:05:25.753Z,13.916667
2022-12-31T06:10:18.747Z,13.918981
2022-12-31T06:15:18.672Z,14.025463
2022-12-31T06:20:18.750Z,14.013889
2022-12-31T06:25:19.195Z,13.971111
2022-12-31T06:35:18.948Z,14.094203
2022-12-31T06:40:18.904Z,14.113333
2022-12-31T06:45:18.712Z,14.120370
2022-12-31T06:50:18.812Z,14.166667
2022-12-31T06:55:18.754Z,14.277778
2022-12-31T07:00:18.745Z,14.349537
2022-12-31T07:05:18.764Z,14.391204
2022-12-31T07:10:21.588Z,14.384259
2022-12-31T07:15:18.831Z,14.416667
2022-12-31T07:20:18.728Z,14.475556
2022-12-31T07:25:18.798Z,14.546296
2022-12-31T07:30:18.905Z,14.555556
2022-12-31T07:35:18.685Z,14.557870
2022-12-31T07:40:18.791Z,14.645833
2022-12-31T07:45:18.882Z,14.668981
2022-12-31T07:50:18.904Z,14.680556
2022-12-31T07:55:18.785Z,14.675926
2022-12-31T08:00:18.941Z,14.696759
2022-12-31T08:05:19.117Z,14.770833
2022-12-31T08:10:18.677Z,14.833333
2022-12-31T08:15:18.773Z,14.928241
2022-12-31T08:20:18.746Z,15.002315
2022-12-31T08:25:18.893Z,15.030093
2022-12-31T08:30:18.969Z,15.090278
2022-12-31T08:35:18.850Z,15.127315
2022-12-31T08:40:18.608Z,15.152778
2022-12-31T08:45:18.701Z,15.201389
2022-12-31T08:50:18.714Z,15.224537
2022-12-31T08:55:18.751Z,15.340000
2022-12-31T09:00:18.647Z,15.400463
2022-12-31T09:05:18.925Z,15.437500
2022-12-31T09:10:18.638Z,15.437500
2022-12-31T09:15:18.754Z,15.465278
2022-12-31T09:20:18.732Z,15.488426
2022-12-31T09:25:18.704Z,15.502315
2022-12-31T09:30:18.845Z,15.553241
2022-12-31T09:35:18.975Z,15.611111
2022-12-31T09:40:18.960Z,15.664352
2022-12-31T09:45:18.662Z,15.636574
2022-12-31T09:50:16.459Z,15.703704
2022-12-31T09:55:16.493Z,15.812500
2022-12-31T10:00:16.208Z,15.881944
2022-12-31T10:05:16.187Z,15.939815
2022-12-31T10:10:16.316Z,15.984444
2022-12-31T10:15:16.392Z,16.016204
2022-12-31T10:20:16.657Z,16.013889
2022-12-31T10:25:16.297Z,16.013889
2022-12-31T10:30:16.204Z,16.030093
2022-12-31T10:35:16.289Z,16.030093
2022-12-31T10:40:16.206Z,15.986111
2022-12-31T10:45:16.163Z,15.984444
2022-12-31T10:50:16.347Z,16.008889
2022-12-31T10:55:16.298Z,16.087963
2022-12-31T11:00:16.289Z,16.120370
2022-12-31T11:05:16.465Z,16.073333
2022-12-31T11:10:16.352Z,16.134259
2022-12-31T11:15:16.198Z,16.202222
2022-12-31T11:20:16.181Z,16.200000
2022-12-31T11:25:16.124Z,16.263889
2022-12-31T11:30:16.217Z,16.275556
2022-12-31T11:35:16.219Z,16.314815
2022-12-31T11:40:16.350Z,16.296296
2022-12-31T11:45:16.381Z,16.335648
2022-12-31T11:50:16.185Z,16.337778
2022-12-31T11:55:16.496Z,16.384444
2022-12-31T12:00:16.288Z,16.442130
2022-12-31T12:05:16.103Z,16.555556
2022-12-31T12:10:16.253Z,16.611111
2022-12-31T12:15:16.179Z,16.722222
2022-12-31T12:20:16.416Z,16.824444
2022-12-31T12:25:16.177Z,16.930556
2022-12-31T12:30:16.198Z,17.027778
2022-12-31T12:35:16.193Z,16.979167
2022-12-31T12:40:16.077Z,16.888889
2022-12-31T12:45:16.309Z,16.858796
2022-12-31T12:50:16.208Z,16.856481
2022-12-31T12:55:16.173Z,16.840278
2022-12-31T13:00:16.249Z,16.800000
2022-12-31T13:05:16.149Z,16.710648
2022-12-31T13:10:16.165Z,16.653333
2022-12-31T13:15:16.137Z,16.641204
2022-12-31T13:20:16.630Z,16.682870
2022-12-31T13:25:16.267Z,16.642222
2022-12-31T13:30:16.432Z,16.601852
2022-12-31T13:35:16.217Z,16.560185
2022-12-31T13:40:16.169Z,16.594907
2022-12-31T13:45:16.172Z,16.631944
2022-12-31T13:50:16.469Z,16.641204
2022-12-31T13:55:16.282Z,16.648148
2022-12-31T14:00:16.334Z,16.662222
2022-12-31T14:05:16.377Z,16.592593
2022-12-31T14:10:16.021Z,16.524444
2022-12-31T14:15:16.180Z,16.472222
2022-12-31T14:25:16.216Z,16.439614
2022-12-31T14:30:16.141Z,16.395833
2022-12-31T14:35:16.302Z,16.384259
2022-12-31T14:40:16.254Z,16.321759
2022-12-31T14:45:16.056Z,16.236111
2022-12-31T14:50:16.087Z,16.215278
2022-12-31T14:55:16.111Z,16.180556
2022-12-31T15:00:16.156Z,16.127315
2022-12-31T15:05:16.313Z,16.168981
2022-12-31T15:10:16.197Z,16.129630
2022-12-31T15:15:16.738Z,16.057778
2022-12-31T15:20:17.624Z,16.060185
2022-12-31T15:25:16.615Z,16.055556
2022-12-31T15:30:16.184Z,15.918981
2022-12-31T15:35:16.287Z,15.787037
2022-12-31T15:40:16.264Z,15.770833
2022-12-31T15:45:16.291Z,15.635556
2022-12-31T15:50:16.254Z,15.664352
2022-12-31T15:55:16.397Z,15.782222
2022-12-31T16:00:16.278Z,15.911111
2022-12-31T16:05:16.195Z,15.891204
2022-12-31T16:10:16.268Z,15.923611
2022-12-31T16:15:16.634Z,15.995370
2022-12-31T16:20:16.516Z,16.057870
2022-12-31T16:25:32.903Z,16.060185
2022-12-31T16:30:16.157Z,16.078704
2022-12-31T16:35:23.064Z,16.111111
2022-12-31T16:40:16.182Z,16.157778
2022-12-31T16:45:16.100Z,16.168889
2022-12-31T16:50:16.086Z,16.197778
2022-12-31T16:55:16.542Z,16.222222
2022-12-31T17:00:16.185Z,16.243056
2022-12-31T17:05:16.323Z,16.340278
2022-12-31T17:10:16.101Z,16.391204
2022-12-31T17:15:16.142Z,16.414352
2022-12-31T17:20:16.183Z,16.435185
2022-12-31T17:25:16.115Z,16.462963
2022-12-31T17:30:16.054Z,16.458333
2022-12-31T17:35:18.729Z,16.442222
2022-12-31T17:40:49.746Z,16.444444
2022-12-31T17:45:18.757Z,16.409722
2022-12-31T17:50:18.869Z,16.391204
2022-12-31T17:55:18.809Z,16.305556
2022-12-31T18:00:18.639Z,16.268519
2022-12-31T18:05:18.736Z,16.256944
2022-12-31T18:10:18.579Z,16.261574
2022-12-31T18:15:18.631Z,16.231481
2022-12-31T18:20:18.613Z,16.159722
2022-12-31T18:25:18.761Z,16.106481
2022-12-31T18:30:19.136Z,16.168981
2022-12-31T18:35:57.745Z,16.187500
2022-12-31T18:40:18.715Z,16.250000
2022-12-31T18:45:19.094Z,16.296296
2022-12-31T18:50:18.783Z,16.340278
2022-12-31T18:55:18.790Z,16.377315
2022-12-31T19:00:18.527Z,16.437778
2022-12-31T19:05:18.546Z,16.504630
2022-12-31T19:10:19.040Z,16.504630
2022-12-31T19:15:18.587Z,16.456019
2022-12-31T19:20:18.569Z,16.358796
2022-12-31T19:25:18.580Z,16.326389
2022-12-31T19:30:18.499Z,16.261574
2022-12-31T19:35:18.710Z,16.171296
2022-12-31T19:40:18.717Z,16.159722
2022-12-31T19:45:18.592Z,16.199074
2022-12-31T19:50:18.753Z,16.340278
2022-12-31T19:55:18.644Z,16.386574
2022-12-31T20:00:18.539Z,16.425926
2022-12-31T20:05:18.728Z,16.481481
2022-12-31T20:10:18.686Z,16.500000
2022-12-31T20:15:18.720Z,16.555556
2022-12-31T20:20:18.479Z,16.620370
2022-12-31T20:25:18.741Z,16.682870
2022-12-31T20:30:18.554Z,16.666667
2022-12-31T20:35:18.769Z,16.685185
2022-12-31T20:40:18.799Z,16.664352
2022-12-31T20:45:18.884Z,16.706019
2022-12-31T20:50:19.099Z,16.729167
2022-12-31T20:55:18.960Z,16.699074
2022-12-31T21:00:18.527Z,16.657407
2022-12-31T21:05:18.902Z,16.599537
2022-12-31T21:10:18.540Z,16.642222
2022-12-31T21:15:18.706Z,16.726852
2022-12-31T21:20:18.704Z,16.722222
2022-12-31T21:25:18.643Z,16.689815
2022-12-31T21:30:19.534Z,16.636574
2022-12-31T21:35:56.552Z,16.583333
2022-12-31T21:40:18.583Z,16.606481
2022-12-31T21:45:18.811Z,16.615741
2022-12-31T21:50:18.858Z,16.574074
2022-12-31T21:55:18.589Z,16.546296
2022-12-31T22:00:41.048Z,16.509259
2022-12-31T22:05:24.846Z,16.509259
2022-12-31T22:10:18.538Z,16.483796
2022-12-31T22:15:18.540Z,16.462963
2022-12-31T22:20:27.265Z,16.502315
2022-12-31T22:25:18.684Z,16.469907
2022-12-31T22:30:18.500Z,16.407407
2022-12-31T22:35:18.510Z,16.331019
2022-12-31T22:40:18.782Z,16.298611
2022-12-31T22:45:18.527Z,16.333333
2022-12-31T22:50:18.510Z,16.400463
2022-12-31T22:55:18.538Z,16.437500
2022-12-31T23:00:18.627Z,16.472222
2022-12-31T23:05:18.858Z,16.476852
2022-12-31T23:10:18.340Z,16.449074
2022-12-31T23:15:18.476Z,16.476852
2022-12-31T23:20:18.584Z,16.553241
2022-12-31T23:25:18.362Z,16.553241
2022-12-31T23:30:18.872Z,16.502315
2022-12-31T23:35:18.382Z,16.444444
2022-12-31T23:40:21.623Z,16.476852
2022-12-31T23:45:18.408Z,16.486111
2022-12-31T23:50:18.356Z,16.418981
2022-12-31T23:55:18.513Z,16.363426
